createdAt,value
2019-03-17T00:02:16.965Z,14.00
2019-03-17T00:04:43.110Z,14.00
2019-03-17T00:07:09.278Z,14.00
2019-03-17T00:09:35.475Z,14.00
2019-03-17T00:12:01.634Z,14.00
2019-03-17T00:14:27.784Z,14.00
2019-03-17T00:16:54.278Z,14.00
2019-03-17T00:19:20.433Z,14.00
2019-03-17T00:21:46.596Z,14.00
2019-03-17T00:24:12.744Z,13.90
2019-03-17T00:26:38.896Z,13.90
2019-03-17T00:29:05.042Z,13.90
2019-03-17T00:31:31.193Z,14.00
2019-03-17T00:33:57.352Z,13.90
2019-03-17T00:36:23.513Z,14.00
2019-03-17T00:38:50.433Z,13.90
2019-03-17T00:41:16.576Z,13.90
2019-03-17T00:43:42.735Z,13.90
2019-03-17T00:46:08.886Z,14.00
2019-03-17T00:48:35.033Z,14.00
2019-03-17T00:51:01.195Z,14.00
2019-03-17T00:53:27.346Z,13.90
2019-03-17T00:55:53.497Z,13.90
2019-03-17T00:58:19.648Z,14.00
2019-03-17T01:00:45.812Z,14.00
2019-03-17T01:03:11.959Z,14.00
2019-03-17T01:05:38.110Z,13.90
2019-03-17T01:08:04.266Z,13.90
2019-03-17T01:10:30.417Z,13.90
2019-03-17T01:12:56.574Z,13.90
2019-03-17T01:15:22.734Z,13.90
2019-03-17T01:17:48.878Z,14.00
2019-03-17T01:20:15.743Z,14.00
2019-03-17T01:22:41.905Z,13.90
2019-03-17T01:25:08.051Z,13.90
2019-03-17T01:27:34.200Z,13.90
2019-03-17T01:30:00.409Z,13.90
2019-03-17T01:32:26.552Z,13.90
2019-03-17T01:34:52.719Z,13.90
2019-03-17T01:37:18.882Z,13.90
2019-03-17T01:39:45.043Z,13.90
2019-03-17T01:42:11.207Z,13.90
2019-03-17T01:44:37.365Z,13.90
2019-03-17T01:47:03.516Z,13.90
2019-03-17T01:49:29.685Z,13.90
2019-03-17T01:51:55.838Z,13.90
2019-03-17T01:54:22.013Z,14.00
2019-03-17T01:56:48.165Z,13.90
2019-03-17T01:59:14.336Z,13.90
2019-03-17T02:01:40.492Z,13.90
2019-03-17T02:04:06.670Z,13.90
2019-03-17T02:06:32.833Z,13.90
2019-03-17T02:08:59.009Z,13.90
2019-03-17T02:11:25.162Z,13.90
2019-03-17T02:13:52.095Z,13.90
2019-03-17T02:16:18.252Z,13.90
2019-03-17T02:18:44.435Z,13.90
2019-03-17T02:21:10.598Z,13.90
2019-03-17T02:23:36.756Z,13.90
2019-03-17T02:26:02.913Z,13.90
2019-03-17T02:28:29.073Z,13.90
2019-03-17T02:30:55.216Z,13.90
2019-03-17T02:33:21.370Z,13.90
2019-03-17T02:35:47.539Z,13.90
2019-03-17T02:38:13.688Z,13.90
2019-03-17T02:40:39.841Z,13.90
2019-03-17T02:43:05.994Z,13.90
2019-03-17T02:45:32.156Z,13.90
2019-03-17T02:47:58.313Z,13.90
2019-03-17T02:50:24.466Z,13.90
2019-03-17T02:52:50.613Z,13.90
2019-03-17T02:55:17.529Z,13.90
2019-03-17T02:57:43.746Z,13.90
2019-03-17T03:00:09.894Z,13.90
2019-03-17T03:02:36.053Z,13.90
2019-03-17T03:05:02.221Z,13.80
2019-03-17T03:07:28.379Z,13.90
2019-03-17T03:09:54.552Z,13.90
2019-03-17T03:12:20.706Z,13.90
2019-03-17T03:14:46.864Z,13.90
2019-03-17T03:17:13.017Z,13.90
2019-03-17T03:19:39.169Z,13.80
2019-03-17T03:22:05.330Z,13.80
2019-03-17T03:24:32.978Z,13.80
2019-03-17T03:26:59.129Z,13.80
2019-03-17T03:29:27.332Z,13.90
2019-03-17T03:31:51.491Z,13.90
2019-03-17T03:34:17.649Z,13.90
2019-03-17T03:36:43.815Z,13.80
2019-03-17T03:39:09.971Z,13.80
2019-03-17T03:41:36.145Z,13.80
2019-03-17T03:44:02.449Z,13.80
2019-03-17T03:46:28.633Z,13.80
2019-03-17T03:48:54.786Z,13.90
2019-03-17T03:51:20.949Z,13.80
2019-03-17T03:53:47.096Z,13.90
2019-03-17T03:56:13.277Z,13.80
2019-03-17T03:58:39.434Z,13.80
2019-03-17T04:01:05.590Z,13.90
2019-03-17T04:03:31.757Z,13.80
2019-03-17T04:05:57.909Z,13.80
2019-03-17T04:08:24.060Z,13.80
2019-03-17T04:10:50.208Z,13.80
2019-03-17T04:13:20.457Z,13.80
2019-03-17T04:15:46.614Z,13.90
2019-03-17T04:18:12.768Z,13.80
2019-03-17T04:20:38.925Z,13.90
2019-03-17T04:23:05.087Z,13.80
2019-03-17T04:25:31.237Z,13.80
2019-03-17T04:27:57.388Z,13.80
2019-03-17T04:30:23.547Z,13.80
2019-03-17T04:32:49.705Z,13.80
2019-03-17T04:35:15.865Z,13.80
2019-03-17T04:37:42.031Z,13.80
2019-03-17T04:40:08.225Z,13.80
2019-03-17T04:42:34.373Z,13.80
2019-03-17T04:45:00.518Z,13.80
2019-03-17T04:47:26.679Z,13.80
2019-03-17T04:49:52.829Z,13.80
2019-03-17T04:52:18.980Z,13.80
2019-03-17T04:54:45.135Z,13.80
2019-03-17T04:57:11.288Z,13.80
2019-03-17T04:59:37.444Z,13.80
2019-03-17T05:02:03.596Z,13.80
2019-03-17T05:04:29.751Z,13.80
2019-03-17T05:06:55.900Z,13.80
2019-03-17T05:09:22.050Z,13.80
2019-03-17T05:11:48.220Z,13.80
2019-03-17T05:14:14.371Z,13.80
2019-03-17T05:16:40.517Z,13.80
2019-03-17T05:19:06.672Z,13.80
2019-03-17T05:21:32.828Z,13.80
2019-03-17T05:23:59.014Z,13.80
2019-03-17T05:26:25.156Z,13.80
2019-03-17T05:28:51.304Z,13.80
2019-03-17T05:31:17.456Z,13.80
2019-03-17T05:33:44.368Z,13.80
2019-03-17T05:36:10.525Z,13.80
2019-03-17T05:38:36.669Z,13.80
2019-03-17T05:41:03.006Z,13.80
2019-03-17T05:43:29.195Z,13.80
2019-03-17T05:45:55.345Z,13.80
2019-03-17T05:48:21.496Z,13.80
2019-03-17T05:50:47.652Z,13.80
2019-03-17T05:53:13.820Z,13.80
2019-03-17T05:55:39.974Z,13.80
2019-03-17T05:58:06.138Z,13.80
2019-03-17T06:00:32.291Z,13.80
2019-03-17T06:02:58.470Z,13.80
2019-03-17T06:05:24.788Z,13.80
2019-03-17T06:07:50.956Z,13.80
2019-03-17T06:10:17.113Z,13.80
2019-03-17T06:12:43.295Z,13.80
2019-03-17T06:15:09.452Z,13.80
2019-03-17T06:17:35.620Z,13.80
2019-03-17T06:20:01.772Z,13.80
2019-03-17T06:22:28.210Z,13.80
2019-03-17T06:24:54.363Z,13.80
2019-03-17T06:27:20.522Z,13.80
2019-03-17T06:29:46.672Z,13.70
2019-03-17T06:32:12.828Z,13.80
2019-03-17T06:34:38.973Z,13.70
2019-03-17T06:37:05.133Z,13.80
2019-03-17T06:39:31.284Z,13.80
2019-03-17T06:41:57.433Z,13.80
2019-03-17T06:44:23.576Z,13.80
2019-03-17T06:46:49.721Z,13.80
2019-03-17T06:49:15.874Z,13.80
2019-03-17T06:51:42.049Z,13.80
2019-03-17T06:54:08.427Z,13.70
2019-03-17T06:56:34.573Z,13.80
2019-03-17T06:59:00.726Z,13.80
2019-03-17T07:01:26.880Z,13.80
2019-03-17T07:03:53.038Z,13.80
2019-03-17T07:06:19.198Z,13.80
2019-03-17T07:08:45.360Z,13.80
2019-03-17T07:11:11.518Z,13.80
2019-03-17T07:13:37.684Z,13.80
2019-03-17T07:16:03.833Z,13.70
2019-03-17T07:18:30.000Z,13.60
2019-03-17T07:20:56.149Z,13.30
2019-03-17T07:23:22.314Z,13.10
2019-03-17T07:25:48.461Z,13.10
2019-03-17T07:28:14.628Z,13.20
2019-03-17T07:30:40.772Z,13.40
2019-03-17T07:33:06.943Z,13.60
2019-03-17T07:35:33.097Z,13.70
2019-03-17T07:37:59.249Z,13.90
2019-03-17T07:40:25.406Z,14.00
2019-03-17T07:42:51.552Z,14.10
2019-03-17T07:45:17.700Z,14.30
2019-03-17T07:47:43.862Z,14.30
2019-03-17T07:50:10.708Z,14.40
2019-03-17T07:52:36.851Z,14.40
2019-03-17T07:55:03.009Z,14.30
2019-03-17T07:57:29.171Z,14.40
2019-03-17T07:59:55.497Z,14.40
2019-03-17T08:02:21.640Z,14.50
2019-03-17T08:04:47.814Z,14.60
2019-03-17T08:07:13.968Z,14.60
2019-03-17T08:09:40.121Z,14.70
2019-03-17T08:12:06.283Z,14.80
2019-03-17T08:14:32.587Z,14.90
2019-03-17T08:16:58.731Z,14.90
2019-03-17T08:19:24.880Z,15.00
2019-03-17T08:21:51.033Z,15.00
2019-03-17T08:24:17.200Z,15.00
2019-03-17T08:26:43.350Z,15.10
2019-03-17T08:29:09.524Z,15.20
2019-03-17T08:31:35.676Z,15.20
2019-03-17T08:34:01.842Z,15.30
2019-03-17T08:36:28.001Z,15.40
2019-03-17T08:38:54.165Z,15.40
2019-03-17T08:41:20.330Z,15.40
2019-03-17T08:43:54.310Z,15.50
2019-03-17T08:46:13.466Z,15.50
2019-03-17T08:48:39.623Z,15.50
2019-03-17T08:51:05.772Z,15.50
2019-03-17T08:53:31.932Z,15.60
2019-03-17T08:55:58.087Z,15.60
2019-03-17T08:58:25.010Z,15.60
2019-03-17T09:00:51.167Z,15.60
2019-03-17T09:03:17.325Z,15.70
2019-03-17T09:05:43.472Z,15.70
2019-03-17T09:08:09.628Z,15.70
2019-03-17T09:10:35.781Z,15.80
2019-03-17T09:13:04.123Z,15.80
2019-03-17T09:15:28.118Z,15.80
2019-03-17T09:17:54.265Z,15.70
2019-03-17T09:20:20.414Z,15.90
2019-03-17T09:22:46.675Z,15.90
2019-03-17T09:25:12.784Z,15.90
2019-03-17T09:27:38.931Z,15.90
2019-03-17T09:30:05.120Z,16.00
2019-03-17T09:32:31.273Z,16.00
2019-03-17T09:34:57.417Z,16.00
2019-03-17T09:37:23.566Z,16.00
2019-03-17T09:39:49.721Z,16.10
2019-03-17T09:42:15.879Z,16.10
2019-03-17T09:44:42.055Z,16.10
2019-03-17T09:47:08.201Z,16.10
2019-03-17T09:49:34.374Z,16.10
2019-03-17T09:52:00.534Z,16.10
2019-03-17T09:54:26.701Z,16.10
2019-03-17T09:56:52.853Z,16.20
2019-03-17T09:59:19.051Z,16.20
2019-03-17T10:01:45.204Z,16.20
2019-03-17T10:04:11.352Z,16.30
2019-03-17T10:06:37.668Z,16.30
2019-03-17T10:09:03.823Z,16.30
2019-03-17T10:11:29.979Z,16.30
2019-03-17T10:13:56.144Z,16.20
2019-03-17T10:16:23.051Z,16.40
2019-03-17T10:18:49.215Z,16.30
2019-03-17T10:21:15.371Z,16.30
2019-03-17T10:23:41.527Z,16.30
2019-03-17T10:26:07.673Z,16.40
2019-03-17T10:28:35.100Z,16.40
2019-03-17T10:31:00.022Z,16.40
2019-03-17T10:33:26.168Z,16.50
2019-03-17T10:35:52.313Z,16.40
2019-03-17T10:38:18.456Z,16.40
2019-03-17T10:40:44.613Z,16.30
2019-03-17T10:43:10.765Z,16.40
2019-03-17T10:45:36.921Z,16.30
2019-03-17T10:48:03.064Z,16.40
2019-03-17T10:50:29.218Z,16.40
2019-03-17T10:52:55.372Z,16.50
2019-03-17T10:55:22.301Z,16.50
2019-03-17T10:57:48.445Z,16.50
2019-03-17T11:00:14.630Z,16.50
2019-03-17T11:02:40.933Z,16.50
2019-03-17T11:05:07.109Z,16.50
2019-03-17T11:07:33.261Z,16.50
2019-03-17T11:09:59.435Z,16.60
2019-03-17T11:12:25.580Z,16.60
2019-03-17T11:14:51.749Z,16.60
2019-03-17T11:17:17.897Z,16.60
2019-03-17T11:19:44.057Z,16.70
2019-03-17T11:22:10.205Z,16.60
2019-03-17T11:24:36.357Z,16.60
2019-03-17T11:27:02.511Z,16.70
2019-03-17T11:29:28.670Z,16.70
2019-03-17T11:31:54.826Z,16.70
2019-03-17T11:34:20.974Z,16.70
2019-03-17T11:36:47.131Z,16.80
2019-03-17T11:39:13.281Z,16.70
2019-03-17T11:41:40.189Z,16.70
2019-03-17T11:44:06.342Z,16.70
2019-03-17T11:46:32.513Z,16.70
2019-03-17T11:48:58.664Z,16.80
2019-03-17T11:51:24.825Z,16.80
2019-03-17T11:53:51.750Z,16.80
2019-03-17T11:56:17.900Z,16.80
2019-03-17T11:58:44.048Z,16.70
2019-03-17T12:01:10.209Z,16.70
2019-03-17T12:03:36.369Z,16.70
2019-03-17T12:06:03.328Z,16.70
2019-03-17T12:08:29.485Z,16.70
2019-03-17T12:10:55.700Z,16.70
2019-03-17T12:13:21.855Z,16.80
2019-03-17T12:15:48.025Z,16.80
2019-03-17T12:18:14.181Z,16.80
2019-03-17T12:20:40.348Z,16.80
2019-03-17T12:23:06.492Z,16.80
2019-03-17T12:25:32.638Z,16.80
2019-03-17T12:27:58.799Z,16.80
2019-03-17T12:30:24.960Z,16.80
2019-03-17T12:32:51.108Z,16.80
2019-03-17T12:35:17.257Z,16.80
2019-03-17T12:37:43.419Z,16.80
2019-03-17T12:40:09.579Z,16.80
2019-03-17T12:42:35.737Z,16.80
2019-03-17T12:45:01.900Z,16.80
2019-03-17T12:47:28.059Z,16.90
2019-03-17T12:49:54.216Z,16.90
2019-03-17T12:52:20.360Z,16.90
2019-03-17T12:54:46.513Z,16.80
2019-03-17T12:57:12.666Z,16.80
2019-03-17T12:59:38.820Z,16.80
2019-03-17T13:02:05.732Z,16.80
2019-03-17T13:04:31.885Z,16.80
2019-03-17T13:06:58.035Z,16.80
2019-03-17T13:09:24.203Z,16.80
2019-03-17T13:11:50.385Z,16.80
2019-03-17T13:14:16.557Z,16.80
2019-03-17T13:16:42.708Z,16.80
2019-03-17T13:19:08.862Z,16.80
2019-03-17T13:21:35.031Z,16.70
2019-03-17T13:24:01.181Z,16.80
2019-03-17T13:26:27.331Z,16.80
2019-03-17T13:28:54.249Z,16.70
2019-03-17T13:31:20.649Z,16.70
2019-03-17T13:33:46.588Z,16.70
2019-03-17T13:36:12.754Z,16.70
2019-03-17T13:38:39.095Z,16.70
2019-03-17T13:41:05.256Z,16.80
2019-03-17T13:43:31.428Z,16.90
2019-03-17T13:45:57.589Z,16.90
2019-03-17T13:48:23.746Z,16.90
2019-03-17T13:50:49.895Z,16.90
2019-03-17T13:53:16.065Z,16.90
2019-03-17T13:55:42.215Z,16.90
2019-03-17T13:58:08.367Z,16.80
2019-03-17T14:00:34.530Z,16.80
2019-03-17T14:03:01.449Z,16.90
2019-03-17T14:05:27.597Z,16.90
2019-03-17T14:07:53.752Z,16.90
2019-03-17T14:10:19.900Z,16.90
2019-03-17T14:12:46.061Z,16.90
2019-03-17T14:15:12.217Z,17.00
2019-03-17T14:17:38.359Z,17.00
2019-03-17T14:20:04.509Z,17.00
2019-03-17T14:22:30.660Z,17.10
2019-03-17T14:24:56.823Z,17.10
2019-03-17T14:27:22.973Z,17.10
2019-03-17T14:29:49.207Z,17.10
2019-03-17T14:32:15.324Z,17.20
2019-03-17T14:34:41.499Z,17.20
2019-03-17T14:37:07.799Z,17.10
2019-03-17T14:39:33.954Z,17.20
2019-03-17T14:42:00.100Z,17.20
2019-03-17T14:44:26.249Z,17.20
2019-03-17T14:46:52.442Z,17.20
2019-03-17T14:49:19.353Z,17.30
2019-03-17T14:51:45.510Z,17.30
2019-03-17T14:54:11.654Z,17.30
2019-03-17T14:56:37.805Z,17.30
2019-03-17T14:59:03.969Z,17.30
2019-03-17T15:01:30.125Z,17.40
2019-03-17T15:03:56.277Z,17.30
2019-03-17T15:06:22.427Z,17.30
2019-03-17T15:08:48.573Z,17.40
2019-03-17T15:11:14.729Z,17.40
2019-03-17T15:13:40.873Z,17.40
2019-03-17T15:16:07.031Z,17.40
2019-03-17T15:18:33.185Z,17.50
2019-03-17T15:20:59.354Z,17.40
2019-03-17T15:23:25.512Z,17.50
2019-03-17T15:25:51.749Z,17.50
2019-03-17T15:28:17.915Z,17.50
2019-03-17T15:30:57.004Z,17.50
2019-03-17T15:33:10.316Z,17.50
2019-03-17T15:35:36.461Z,17.60
2019-03-17T15:38:02.697Z,17.50
2019-03-17T15:40:28.843Z,17.60
2019-03-17T15:42:54.996Z,17.50
2019-03-17T15:45:21.181Z,17.60
2019-03-17T15:47:47.342Z,17.60
2019-03-17T15:50:13.502Z,17.60
2019-03-17T15:52:39.662Z,17.60
2019-03-17T15:55:05.809Z,17.70
2019-03-17T15:57:33.064Z,17.70
2019-03-17T15:59:59.217Z,17.70
2019-03-17T16:02:25.373Z,17.80
2019-03-17T16:04:51.589Z,17.80
2019-03-17T16:07:18.220Z,17.70
2019-03-17T16:09:44.415Z,17.70
2019-03-17T16:12:10.576Z,17.80
2019-03-17T16:14:36.744Z,17.80
2019-03-17T16:17:03.013Z,17.80
2019-03-17T16:19:29.486Z,17.90
2019-03-17T16:21:55.800Z,17.90
2019-03-17T16:24:22.054Z,17.90
2019-03-17T16:26:48.221Z,17.70
2019-03-17T16:29:14.395Z,17.50
2019-03-17T16:31:40.551Z,17.20
2019-03-17T16:34:06.864Z,17.10
2019-03-17T16:36:33.023Z,17.10
2019-03-17T16:38:59.288Z,17.30
2019-03-17T16:41:25.466Z,17.40
2019-03-17T16:43:51.745Z,17.50
2019-03-17T16:46:17.898Z,17.50
2019-03-17T16:48:44.073Z,17.50
2019-03-17T16:51:10.240Z,17.60
2019-03-17T16:53:36.407Z,17.60
2019-03-17T16:56:02.562Z,17.60
2019-03-17T16:58:28.724Z,17.60
2019-03-17T17:00:54.877Z,17.70
2019-03-17T17:03:21.049Z,17.60
2019-03-17T17:05:47.232Z,17.70
2019-03-17T17:08:13.393Z,17.70
2019-03-17T17:10:39.543Z,17.70
2019-03-17T17:13:05.721Z,17.60
2019-03-17T17:15:32.636Z,17.70
2019-03-17T17:17:58.792Z,17.60
2019-03-17T17:20:24.959Z,17.70
2019-03-17T17:22:51.198Z,17.80
2019-03-17T17:25:17.320Z,17.90
2019-03-17T17:27:43.474Z,17.90
2019-03-17T17:30:09.616Z,18.00
2019-03-17T17:32:35.770Z,18.00
2019-03-17T17:35:01.938Z,18.10
2019-03-17T17:37:28.089Z,18.20
2019-03-17T17:39:54.258Z,18.20
2019-03-17T17:42:20.429Z,18.30
2019-03-17T17:44:46.601Z,18.30
2019-03-17T17:47:12.756Z,18.30
2019-03-17T17:49:38.971Z,18.30
2019-03-17T17:52:05.179Z,18.30
2019-03-17T17:54:31.484Z,18.40
2019-03-17T17:56:57.632Z,18.40
2019-03-17T17:59:23.801Z,18.50
2019-03-17T18:01:50.189Z,18.50
2019-03-17T18:04:16.361Z,18.50
2019-03-17T18:06:42.512Z,18.50
2019-03-17T18:09:08.684Z,18.50
2019-03-17T18:11:34.836Z,18.50
2019-03-17T18:14:01.004Z,18.50
2019-03-17T18:16:27.169Z,18.60
2019-03-17T18:18:53.320Z,18.60
2019-03-17T18:21:19.477Z,18.60
2019-03-17T18:23:45.632Z,18.50
2019-03-17T18:26:11.801Z,18.20
2019-03-17T18:28:37.949Z,18.20
2019-03-17T18:31:04.102Z,18.20
2019-03-17T18:33:30.256Z,18.20
2019-03-17T18:35:56.416Z,18.20
2019-03-17T18:38:22.604Z,18.10
2019-03-17T18:40:48.748Z,18.10
2019-03-17T18:43:14.901Z,18.00
2019-03-17T18:45:42.703Z,17.90
2019-03-17T18:48:07.245Z,17.90
2019-03-17T18:50:33.397Z,17.80
2019-03-17T18:52:59.557Z,17.70
2019-03-17T18:55:25.707Z,17.70
2019-03-17T18:57:51.873Z,17.60
2019-03-17T19:00:18.021Z,17.50
2019-03-17T19:02:44.174Z,17.40
2019-03-17T19:05:10.343Z,17.40
2019-03-17T19:07:36.496Z,17.30
2019-03-17T19:10:02.680Z,17.30
2019-03-17T19:12:28.837Z,17.30
2019-03-17T19:14:55.767Z,17.10
2019-03-17T19:17:21.916Z,17.20
2019-03-17T19:19:48.085Z,17.10
2019-03-17T19:22:14.238Z,17.10
2019-03-17T19:24:40.411Z,17.00
2019-03-17T19:27:06.565Z,16.90
2019-03-17T19:29:32.743Z,16.90
2019-03-17T19:31:58.880Z,16.90
2019-03-17T19:34:25.034Z,16.90
2019-03-17T19:36:51.184Z,16.80
2019-03-17T19:39:17.335Z,16.80
2019-03-17T19:41:44.240Z,16.70
2019-03-17T19:44:10.394Z,16.70
2019-03-17T19:46:36.569Z,16.70
2019-03-17T19:49:02.718Z,16.60
2019-03-17T19:51:28.873Z,16.60
2019-03-17T19:53:55.790Z,16.50
2019-03-17T19:56:21.952Z,16.50
2019-03-17T19:58:48.109Z,16.50
2019-03-17T20:01:14.260Z,16.50
2019-03-17T20:03:40.423Z,16.50
2019-03-17T20:06:07.337Z,16.40
2019-03-17T20:08:33.593Z,16.40
2019-03-17T20:10:59.678Z,16.40
2019-03-17T20:13:25.821Z,16.30
2019-03-17T20:15:51.969Z,16.30
2019-03-17T20:18:18.881Z,16.30
2019-03-17T20:20:45.116Z,16.30
2019-03-17T20:23:11.247Z,16.20
2019-03-17T20:25:37.403Z,16.20
2019-03-17T20:28:03.548Z,16.20
2019-03-17T20:30:29.712Z,16.20
2019-03-17T20:32:55.863Z,16.20
2019-03-17T20:35:22.018Z,16.10
2019-03-17T20:37:48.177Z,16.10
2019-03-17T20:40:14.340Z,16.10
2019-03-17T20:42:40.492Z,16.10
2019-03-17T20:45:06.642Z,16.10
2019-03-17T20:47:32.795Z,16.10
2019-03-17T20:49:58.948Z,16.00
2019-03-17T20:52:25.096Z,16.00
2019-03-17T20:54:51.254Z,16.00
2019-03-17T20:57:17.407Z,16.00
2019-03-17T20:59:44.334Z,16.00
2019-03-17T21:02:10.503Z,16.00
2019-03-17T21:04:36.648Z,16.00
2019-03-17T21:07:02.817Z,15.90
2019-03-17T21:09:28.968Z,15.90
2019-03-17T21:11:55.907Z,15.90
2019-03-17T21:14:22.059Z,15.90
2019-03-17T21:16:48.260Z,15.90
2019-03-17T21:19:14.409Z,15.90
2019-03-17T21:21:40.576Z,15.80
2019-03-17T21:24:06.739Z,15.90
2019-03-17T21:26:32.918Z,15.80
2019-03-17T21:28:59.064Z,15.80
2019-03-17T21:31:25.243Z,15.80
2019-03-17T21:33:51.400Z,15.80
2019-03-17T21:36:17.586Z,15.80
2019-03-17T21:38:43.742Z,15.80
2019-03-17T21:41:09.910Z,15.80
2019-03-17T21:43:36.829Z,15.70
2019-03-17T21:46:03.014Z,15.70
2019-03-17T21:48:29.161Z,15.70
2019-03-17T21:50:55.330Z,15.70
2019-03-17T21:53:21.478Z,15.70
2019-03-17T21:55:47.632Z,15.70
2019-03-17T21:58:13.781Z,15.60
2019-03-17T22:00:39.935Z,15.60
2019-03-17T22:03:06.089Z,15.70
2019-03-17T22:05:32.236Z,15.70
2019-03-17T22:07:58.413Z,15.60
2019-03-17T22:10:24.584Z,15.60
2019-03-17T22:12:50.741Z,15.60
2019-03-17T22:15:16.905Z,15.60
2019-03-17T22:17:43.076Z,15.60
2019-03-17T22:20:09.233Z,15.50
2019-03-17T22:22:35.399Z,15.50
2019-03-17T22:25:01.550Z,15.50
2019-03-17T22:27:27.719Z,15.50
2019-03-17T22:29:53.868Z,15.50
2019-03-17T22:32:20.036Z,15.50
2019-03-17T22:34:46.193Z,15.50
2019-03-17T22:37:12.370Z,15.50
2019-03-17T22:39:38.520Z,15.40
2019-03-17T22:42:04.688Z,15.40
2019-03-17T22:44:30.832Z,15.40
2019-03-17T22:46:57.003Z,15.40
2019-03-17T22:49:23.172Z,15.40
2019-03-17T22:51:49.341Z,15.40
2019-03-17T22:54:15.494Z,15.40
2019-03-17T22:56:42.428Z,15.30
2019-03-17T22:59:08.583Z,15.30
2019-03-17T23:01:34.756Z,15.30
2019-03-17T23:04:00.905Z,15.30
2019-03-17T23:06:27.055Z,15.30
2019-03-17T23:08:53.212Z,15.30
2019-03-17T23:11:19.367Z,15.30
2019-03-17T23:13:45.514Z,15.30
2019-03-17T23:16:11.674Z,15.30
2019-03-17T23:18:37.823Z,15.30
2019-03-17T23:21:03.978Z,15.20
2019-03-17T23:23:30.889Z,15.20
2019-03-17T23:25:57.045Z,15.20
2019-03-17T23:28:23.192Z,15.20
2019-03-17T23:30:49.338Z,15.20
2019-03-17T23:33:15.497Z,15.20
2019-03-17T23:35:41.645Z,15.20
2019-03-17T23:38:07.802Z,15.20
2019-03-17T23:40:33.949Z,15.20
2019-03-17T23:43:00.108Z,15.20
2019-03-17T23:45:26.252Z,15.20
2019-03-17T23:47:53.173Z,15.10
2019-03-17T23:50:19.317Z,15.10
2019-03-17T23:52:45.476Z,15.10
2019-03-17T23:55:11.724Z,15.10
2019-03-17T23:57:37.837Z,15.10
